sensor_id;sensor_type;location;lat;lon;timestamp;P1;durP1;ratioP1;P2;durP2;ratioP2
65871;SDS011;52653;50.080;21.992;2022-10-15T00:00:33;18.20;;;11.90;;
65871;SDS011;52653;50.080;21.992;2022-10-15T00:03:25;26.90;;;18.40;;
65871;SDS011;52653;50.080;21.992;2022-10-15T00:05:56;36.50;;;26.00;;
65871;SDS011;52653;50.080;21.992;2022-10-15T00:08:32;35.70;;;25.70;;
65871;SDS011;52653;50.080;21.992;2022-10-15T00:11:06;36.30;;;27.40;;
65871;SDS011;52653;50.080;21.992;2022-10-15T00:13:39;37.40;;;26.90;;
65871;SDS011;52653;50.080;21.992;2022-10-15T00:16:12;35.40;;;25.90;;
65871;SDS011;52653;50.080;21.992;2022-10-15T00:18:47;35.40;;;25.00;;
65871;SDS011;52653;50.080;21.992;2022-10-15T00:21:19;33.00;;;23.40;;
65871;SDS011;52653;50.080;21.992;2022-10-15T00:23:51;29.30;;;22.10;;
65871;SDS011;52653;50.080;21.992;2022-10-15T00:26:24;29.30;;;21.70;;
65871;SDS011;52653;50.080;21.992;2022-10-15T00:28:58;30.20;;;20.80;;
65871;SDS011;52653;50.080;21.992;2022-10-15T00:31:31;28.80;;;20.40;;
65871;SDS011;52653;50.080;21.992;2022-10-15T00:34:03;29.40;;;20.30;;
65871;SDS011;52653;50.080;21.992;2022-10-15T00:36:35;27.30;;;19.00;;
65871;SDS011;52653;50.080;21.992;2022-10-15T00:39:07;26.50;;;17.70;;
65871;SDS011;52653;50.080;21.992;2022-10-15T00:41:40;28.20;;;18.00;;
65871;SDS011;52653;50.080;21.992;2022-10-15T00:47:24;26.40;;;16.80;;
65871;SDS011;52653;50.080;21.992;2022-10-15T00:50:08;21.60;;;16.00;;
65871;SDS011;52653;50.080;21.992;2022-10-15T00:52:43;20.90;;;14.60;;
65871;SDS011;52653;50.080;21.992;2022-10-15T00:55:26;22.00;;;14.70;;
65871;SDS011;52653;50.080;21.992;2022-10-15T00:58:00;21.90;;;14.50;;
65871;SDS011;52653;50.080;21.992;2022-10-15T01:00:35;19.80;;;14.40;;
65871;SDS011;52653;50.080;21.992;2022-10-15T01:03:06;22.60;;;14.00;;
65871;SDS011;52653;50.080;21.992;2022-10-15T01:05:40;21.20;;;14.30;;
65871;SDS011;52653;50.080;21.992;2022-10-15T01:08:16;20.20;;;14.20;;
65871;SDS011;52653;50.080;21.992;2022-10-15T01:10:50;20.10;;;14.00;;
65871;SDS011;52653;50.080;21.992;2022-10-15T01:13:33;20.40;;;14.60;;
65871;SDS011;52653;50.080;21.992;2022-10-15T01:16:10;24.40;;;16.30;;
65871;SDS011;52653;50.080;21.992;2022-10-15T01:18:49;30.50;;;19.80;;
65871;SDS011;52653;50.080;21.992;2022-10-15T01:21:29;25.90;;;18.80;;
65871;SDS011;52653;50.080;21.992;2022-10-15T01:33:02;20.60;;;14.10;;
65871;SDS011;52653;50.080;21.992;2022-10-15T01:35:44;21.30;;;13.90;;
65871;SDS011;52653;50.080;21.992;2022-10-15T01:38:23;23.00;;;15.20;;
65871;SDS011;52653;50.080;21.992;2022-10-15T01:41:08;22.70;;;15.90;;
65871;SDS011;52653;50.080;21.992;2022-10-15T01:43:45;28.30;;;21.00;;
65871;SDS011;52653;50.080;21.992;2022-10-15T01:46:44;40.30;;;26.30;;
65871;SDS011;52653;50.080;21.992;2022-10-15T01:49:24;35.70;;;23.30;;
65871;SDS011;52653;50.080;21.992;2022-10-15T01:52:05;36.00;;;24.20;;
65871;SDS011;52653;50.080;21.992;2022-10-15T01:54:39;35.70;;;24.90;;
65871;SDS011;52653;50.080;21.992;2022-10-15T01:57:12;38.50;;;27.10;;
65871;SDS011;52653;50.080;21.992;2022-10-15T01:59:47;35.70;;;24.70;;
65871;SDS011;52653;50.080;21.992;2022-10-15T02:02:18;38.90;;;25.00;;
65871;SDS011;52653;50.080;21.992;2022-10-15T02:04:50;36.30;;;24.90;;
65871;SDS011;52653;50.080;21.992;2022-10-15T02:07:27;35.10;;;23.00;;
65871;SDS011;52653;50.080;21.992;2022-10-15T02:10:07;38.90;;;25.50;;
65871;SDS011;52653;50.080;21.992;2022-10-15T02:12:45;37.80;;;24.60;;
65871;SDS011;52653;50.080;21.992;2022-10-15T02:15:29;39.40;;;24.70;;
65871;SDS011;52653;50.080;21.992;2022-10-15T02:18:08;39.70;;;24.70;;
65871;SDS011;52653;50.080;21.992;2022-10-15T02:20:46;41.50;;;28.80;;
65871;SDS011;52653;50.080;21.992;2022-10-15T02:23:26;40.50;;;29.50;;
65871;SDS011;52653;50.080;21.992;2022-10-15T02:26:04;40.40;;;28.90;;
65871;SDS011;52653;50.080;21.992;2022-10-15T02:28:40;41.00;;;29.30;;
65871;SDS011;52653;50.080;21.992;2022-10-15T02:31:15;41.10;;;26.90;;
65871;SDS011;52653;50.080;21.992;2022-10-15T02:33:49;41.70;;;26.80;;
65871;SDS011;52653;50.080;21.992;2022-10-15T02:36:25;40.10;;;25.90;;
65871;SDS011;52653;50.080;21.992;2022-10-15T02:38:58;37.90;;;25.20;;
65871;SDS011;52653;50.080;21.992;2022-10-15T02:41:34;36.90;;;25.60;;
65871;SDS011;52653;50.080;21.992;2022-10-15T02:44:10;37.00;;;24.70;;
65871;SDS011;52653;50.080;21.992;2022-10-15T02:46:42;36.30;;;24.30;;
65871;SDS011;52653;50.080;21.992;2022-10-15T02:49:14;35.70;;;24.80;;
65871;SDS011;52653;50.080;21.992;2022-10-15T02:51:46;35.70;;;24.80;;
65871;SDS011;52653;50.080;21.992;2022-10-15T02:54:18;34.20;;;24.40;;
65871;SDS011;52653;50.080;21.992;2022-10-15T02:56:50;35.20;;;25.10;;
65871;SDS011;52653;50.080;21.992;2022-10-15T02:59:22;34.40;;;23.90;;
65871;SDS011;52653;50.080;21.992;2022-10-15T03:01:54;32.60;;;22.40;;
65871;SDS011;52653;50.080;21.992;2022-10-15T03:04:26;32.90;;;21.20;;
65871;SDS011;52653;50.080;21.992;2022-10-15T03:06:59;26.90;;;18.40;;
65871;SDS011;52653;50.080;21.992;2022-10-15T03:09:31;26.80;;;18.20;;
65871;SDS011;52653;50.080;21.992;2022-10-15T03:12:04;25.10;;;16.80;;
65871;SDS011;52653;50.080;21.992;2022-10-15T03:14:36;24.20;;;15.70;;
65871;SDS011;52653;50.080;21.992;2022-10-15T03:17:08;25.00;;;16.60;;
65871;SDS011;52653;50.080;21.992;2022-10-15T03:19:40;29.00;;;17.10;;
65871;SDS011;52653;50.080;21.992;2022-10-15T03:22:12;26.70;;;17.00;;
65871;SDS011;52653;50.080;21.992;2022-10-15T03:24:49;28.50;;;18.20;;
65871;SDS011;52653;50.080;21.992;2022-10-15T03:27:25;24.60;;;17.90;;
65871;SDS011;52653;50.080;21.992;2022-10-15T03:29:57;24.70;;;16.80;;
65871;SDS011;52653;50.080;21.992;2022-10-15T03:32:31;20.60;;;15.10;;
65871;SDS011;52653;50.080;21.992;2022-10-15T03:35:05;24.10;;;14.50;;
65871;SDS011;52653;50.080;21.992;2022-10-15T03:37:38;22.60;;;15.00;;
65871;SDS011;52653;50.080;21.992;2022-10-15T03:40:10;26.40;;;16.30;;
65871;SDS011;52653;50.080;21.992;2022-10-15T03:42:43;22.20;;;16.00;;
65871;SDS011;52653;50.080;21.992;2022-10-15T03:45:20;20.80;;;13.80;;
65871;SDS011;52653;50.080;21.992;2022-10-15T03:48:03;21.40;;;14.00;;
65871;SDS011;52653;50.080;21.992;2022-10-15T03:50:36;21.20;;;14.70;;
65871;SDS011;52653;50.080;21.992;2022-10-15T03:53:08;24.10;;;14.80;;
65871;SDS011;52653;50.080;21.992;2022-10-15T03:55:40;24.50;;;16.10;;
65871;SDS011;52653;50.080;21.992;2022-10-15T03:58:11;23.50;;;17.80;;
65871;SDS011;52653;50.080;21.992;2022-10-15T04:00:50;30.00;;;18.20;;
65871;SDS011;52653;50.080;21.992;2022-10-15T04:03:21;23.70;;;15.20;;
65871;SDS011;52653;50.080;21.992;2022-10-15T04:05:53;21.80;;;13.60;;
65871;SDS011;52653;50.080;21.992;2022-10-15T04:08:31;19.20;;;12.40;;
65871;SDS011;52653;50.080;21.992;2022-10-15T04:11:07;18.60;;;11.90;;
65871;SDS011;52653;50.080;21.992;2022-10-15T04:13:39;19.50;;;11.80;;
65871;SDS011;52653;50.080;21.992;2022-10-15T04:16:11;18.90;;;11.60;;
65871;SDS011;52653;50.080;21.992;2022-10-15T04:18:43;17.00;;;11.10;;
65871;SDS011;52653;50.080;21.992;2022-10-15T04:21:14;18.00;;;10.80;;
65871;SDS011;52653;50.080;21.992;2022-10-15T04:23:50;16.50;;;11.30;;
65871;SDS011;52653;50.080;21.992;2022-10-15T04:26:30;15.50;;;10.40;;
65871;SDS011;52653;50.080;21.992;2022-10-15T04:29:02;16.70;;;11.70;;
65871;SDS011;52653;50.080;21.992;2022-10-15T04:31:34;17.40;;;11.30;;
65871;SDS011;52653;50.080;21.992;2022-10-15T04:34:06;19.20;;;12.60;;
65871;SDS011;52653;50.080;21.992;2022-10-15T04:36:38;26.30;;;16.20;;
65871;SDS011;52653;50.080;21.992;2022-10-15T04:39:15;27.00;;;17.80;;
65871;SDS011;52653;50.080;21.992;2022-10-15T04:41:47;23.40;;;17.10;;
65871;SDS011;52653;50.080;21.992;2022-10-15T04:46:57;18.20;;;12.70;;
65871;SDS011;52653;50.080;21.992;2022-10-15T04:49:43;18.90;;;10.90;;
65871;SDS011;52653;50.080;21.992;2022-10-15T04:52:34;17.20;;;11.80;;
65871;SDS011;52653;50.080;21.992;2022-10-15T04:55:09;18.00;;;11.40;;
65871;SDS011;52653;50.080;21.992;2022-10-15T04:57:40;18.20;;;11.80;;
65871;SDS011;52653;50.080;21.992;2022-10-15T05:00:13;17.90;;;11.80;;
65871;SDS011;52653;50.080;21.992;2022-10-15T05:03:14;19.10;;;13.30;;
65871;SDS011;52653;50.080;21.992;2022-10-15T05:05:53;18.30;;;11.90;;
65871;SDS011;52653;50.080;21.992;2022-10-15T05:08:28;16.60;;;11.00;;
65871;SDS011;52653;50.080;21.992;2022-10-15T05:11:17;17.60;;;11.70;;
65871;SDS011;52653;50.080;21.992;2022-10-15T05:13:50;17.40;;;11.40;;
65871;SDS011;52653;50.080;21.992;2022-10-15T05:16:24;18.20;;;12.20;;
65871;SDS011;52653;50.080;21.992;2022-10-15T05:18:58;15.00;;;11.40;;
65871;SDS011;52653;50.080;21.992;2022-10-15T05:21:32;18.40;;;11.60;;
65871;SDS011;52653;50.080;21.992;2022-10-15T05:24:13;16.80;;;11.60;;
65871;SDS011;52653;50.080;21.992;2022-10-15T05:27:11;19.90;;;11.60;;
65871;SDS011;52653;50.080;21.992;2022-10-15T05:29:43;17.20;;;11.70;;
65871;SDS011;52653;50.080;21.992;2022-10-15T05:32:15;17.00;;;11.60;;
65871;SDS011;52653;50.080;21.992;2022-10-15T05:34:51;16.90;;;11.90;;
65871;SDS011;52653;50.080;21.992;2022-10-15T05:37:31;24.50;;;17.20;;
65871;SDS011;52653;50.080;21.992;2022-10-15T05:40:02;24.40;;;17.10;;
65871;SDS011;52653;50.080;21.992;2022-10-15T05:42:35;25.40;;;17.20;;
65871;SDS011;52653;50.080;21.992;2022-10-15T05:45:08;25.10;;;17.10;;
65871;SDS011;52653;50.080;21.992;2022-10-15T05:47:42;23.50;;;15.80;;
65871;SDS011;52653;50.080;21.992;2022-10-15T05:50:17;22.50;;;15.00;;
65871;SDS011;52653;50.080;21.992;2022-10-15T05:52:48;23.90;;;15.90;;
65871;SDS011;52653;50.080;21.992;2022-10-15T05:55:49;20.20;;;14.80;;
65871;SDS011;52653;50.080;21.992;2022-10-15T05:58:24;23.70;;;16.30;;
65871;SDS011;52653;50.080;21.992;2022-10-15T06:01:03;20.80;;;15.50;;
65871;SDS011;52653;50.080;21.992;2022-10-15T06:03:39;23.10;;;16.60;;
65871;SDS011;52653;50.080;21.992;2022-10-15T06:06:16;25.10;;;16.90;;
65871;SDS011;52653;50.080;21.992;2022-10-15T06:08:49;25.30;;;16.00;;
65871;SDS011;52653;50.080;21.992;2022-10-15T06:11:21;21.70;;;15.80;;
65871;SDS011;52653;50.080;21.992;2022-10-15T06:13:53;20.50;;;15.00;;
65871;SDS011;52653;50.080;21.992;2022-10-15T06:16:25;23.50;;;15.60;;
65871;SDS011;52653;50.080;21.992;2022-10-15T06:18:57;22.00;;;16.00;;
65871;SDS011;52653;50.080;21.992;2022-10-15T06:21:29;22.90;;;15.50;;
65871;SDS011;52653;50.080;21.992;2022-10-15T06:24:01;21.90;;;16.10;;
65871;SDS011;52653;50.080;21.992;2022-10-15T06:26:38;19.40;;;14.60;;
65871;SDS011;52653;50.080;21.992;2022-10-15T06:29:10;20.50;;;15.20;;
65871;SDS011;52653;50.080;21.992;2022-10-15T06:31:41;21.50;;;15.50;;
65871;SDS011;52653;50.080;21.992;2022-10-15T06:34:13;23.40;;;14.80;;
65871;SDS011;52653;50.080;21.992;2022-10-15T06:36:45;20.20;;;14.20;;
65871;SDS011;52653;50.080;21.992;2022-10-15T06:39:17;19.70;;;13.90;;
65871;SDS011;52653;50.080;21.992;2022-10-15T06:41:48;19.30;;;13.90;;
65871;SDS011;52653;50.080;21.992;2022-10-15T06:44:20;20.00;;;14.80;;
65871;SDS011;52653;50.080;21.992;2022-10-15T06:46:52;21.90;;;15.70;;
65871;SDS011;52653;50.080;21.992;2022-10-15T06:49:24;22.70;;;16.40;;
65871;SDS011;52653;50.080;21.992;2022-10-15T06:51:56;21.50;;;16.00;;
65871;SDS011;52653;50.080;21.992;2022-10-15T06:54:31;22.80;;;16.20;;
65871;SDS011;52653;50.080;21.992;2022-10-15T06:57:05;23.50;;;17.40;;
65871;SDS011;52653;50.080;21.992;2022-10-15T06:59:37;23.30;;;16.70;;
65871;SDS011;52653;50.080;21.992;2022-10-15T07:02:09;23.40;;;16.00;;
65871;SDS011;52653;50.080;21.992;2022-10-15T07:04:42;23.00;;;16.20;;
65871;SDS011;52653;50.080;21.992;2022-10-15T07:07:18;13.90;;;9.90;;
65871;SDS011;52653;50.080;21.992;2022-10-15T07:09:50;12.90;;;9.10;;
65871;SDS011;52653;50.080;21.992;2022-10-15T07:12:23;15.10;;;10.70;;
65871;SDS011;52653;50.080;21.992;2022-10-15T07:14:55;14.20;;;9.80;;
65871;SDS011;52653;50.080;21.992;2022-10-15T07:17:27;16.20;;;10.30;;
65871;SDS011;52653;50.080;21.992;2022-10-15T07:19:59;13.50;;;10.40;;
65871;SDS011;52653;50.080;21.992;2022-10-15T07:22:31;14.60;;;10.50;;
65871;SDS011;52653;50.080;21.992;2022-10-15T07:25:03;15.70;;;10.60;;
65871;SDS011;52653;50.080;21.992;2022-10-15T07:27:37;12.80;;;9.30;;
65871;SDS011;52653;50.080;21.992;2022-10-15T07:30:10;15.20;;;10.20;;
65871;SDS011;52653;50.080;21.992;2022-10-15T07:32:41;15.30;;;9.90;;
65871;SDS011;52653;50.080;21.992;2022-10-15T07:35:14;13.10;;;10.10;;
65871;SDS011;52653;50.080;21.992;2022-10-15T07:37:46;16.00;;;11.00;;
65871;SDS011;52653;50.080;21.992;2022-10-15T07:40:18;14.70;;;10.60;;
65871;SDS011;52653;50.080;21.992;2022-10-15T07:42:54;16.00;;;10.50;;
65871;SDS011;52653;50.080;21.992;2022-10-15T07:45:32;16.50;;;11.20;;
65871;SDS011;52653;50.080;21.992;2022-10-15T07:48:04;14.10;;;10.60;;
65871;SDS011;52653;50.080;21.992;2022-10-15T07:50:36;16.70;;;10.90;;
65871;SDS011;52653;50.080;21.992;2022-10-15T07:53:10;15.20;;;10.70;;
65871;SDS011;52653;50.080;21.992;2022-10-15T07:55:44;15.00;;;10.60;;
65871;SDS011;52653;50.080;21.992;2022-10-15T07:58:16;15.00;;;9.50;;
65871;SDS011;52653;50.080;21.992;2022-10-15T08:00:48;13.40;;;9.30;;
65871;SDS011;52653;50.080;21.992;2022-10-15T08:03:20;14.40;;;9.80;;
65871;SDS011;52653;50.080;21.992;2022-10-15T08:05:52;15.00;;;10.00;;
65871;SDS011;52653;50.080;21.992;2022-10-15T08:08:25;13.40;;;10.00;;
65871;SDS011;52653;50.080;21.992;2022-10-15T08:10:57;14.00;;;10.10;;
65871;SDS011;52653;50.080;21.992;2022-10-15T08:13:33;14.80;;;10.30;;
65871;SDS011;52653;50.080;21.992;2022-10-15T08:16:07;14.40;;;10.10;;
65871;SDS011;52653;50.080;21.992;2022-10-15T08:18:39;16.80;;;10.60;;
65871;SDS011;52653;50.080;21.992;2022-10-15T08:21:11;13.10;;;10.30;;
65871;SDS011;52653;50.080;21.992;2022-10-15T08:23:43;16.30;;;10.40;;
65871;SDS011;52653;50.080;21.992;2022-10-15T08:26:15;13.10;;;10.50;;
65871;SDS011;52653;50.080;21.992;2022-10-15T08:28:47;13.10;;;10.10;;
65871;SDS011;52653;50.080;21.992;2022-10-15T08:31:20;14.10;;;10.40;;
65871;SDS011;52653;50.080;21.992;2022-10-15T08:33:52;15.10;;;10.60;;
65871;SDS011;52653;50.080;21.992;2022-10-15T08:36:24;15.70;;;10.60;;
65871;SDS011;52653;50.080;21.992;2022-10-15T08:38:56;14.60;;;10.80;;
65871;SDS011;52653;50.080;21.992;2022-10-15T08:41:29;14.70;;;11.00;;
65871;SDS011;52653;50.080;21.992;2022-10-15T08:44:05;15.80;;;12.20;;
65871;SDS011;52653;50.080;21.992;2022-10-15T08:46:41;15.00;;;10.80;;
65871;SDS011;52653;50.080;21.992;2022-10-15T08:49:19;14.30;;;10.90;;
65871;SDS011;52653;50.080;21.992;2022-10-15T08:51:57;14.30;;;9.60;;
65871;SDS011;52653;50.080;21.992;2022-10-15T08:54:36;15.00;;;9.10;;
65871;SDS011;52653;50.080;21.992;2022-10-15T08:57:10;14.60;;;10.50;;
65871;SDS011;52653;50.080;21.992;2022-10-15T08:59:53;15.00;;;10.80;;
65871;SDS011;52653;50.080;21.992;2022-10-15T09:02:33;13.50;;;10.20;;
65871;SDS011;52653;50.080;21.992;2022-10-15T09:05:13;13.70;;;10.10;;
65871;SDS011;52653;50.080;21.992;2022-10-15T09:07:57;18.90;;;10.40;;
65871;SDS011;52653;50.080;21.992;2022-10-15T09:10:38;13.00;;;10.10;;
65871;SDS011;52653;50.080;21.992;2022-10-15T09:13:19;12.80;;;10.40;;
65871;SDS011;52653;50.080;21.992;2022-10-15T09:15:57;13.90;;;11.60;;
65871;SDS011;52653;50.080;21.992;2022-10-15T09:21:05;17.30;;;11.10;;
65871;SDS011;52653;50.080;21.992;2022-10-15T09:23:39;12.60;;;10.20;;
65871;SDS011;52653;50.080;21.992;2022-10-15T09:26:19;15.90;;;11.10;;
65871;SDS011;52653;50.080;21.992;2022-10-15T09:28:58;13.20;;;10.50;;
65871;SDS011;52653;50.080;21.992;2022-10-15T09:31:41;13.30;;;10.70;;
65871;SDS011;52653;50.080;21.992;2022-10-15T09:36:52;16.40;;;11.90;;
65871;SDS011;52653;50.080;21.992;2022-10-15T09:39:35;14.50;;;11.90;;
65871;SDS011;52653;50.080;21.992;2022-10-15T09:42:18;14.00;;;11.30;;
65871;SDS011;52653;50.080;21.992;2022-10-15T09:45:00;15.80;;;11.90;;
65871;SDS011;52653;50.080;21.992;2022-10-15T09:47:36;14.70;;;11.70;;
65871;SDS011;52653;50.080;21.992;2022-10-15T09:50:10;14.60;;;11.50;;
65871;SDS011;52653;50.080;21.992;2022-10-15T09:52:47;14.90;;;11.90;;
65871;SDS011;52653;50.080;21.992;2022-10-15T09:55:34;15.90;;;11.80;;
65871;SDS011;52653;50.080;21.992;2022-10-15T09:58:13;13.70;;;12.00;;
65871;SDS011;52653;50.080;21.992;2022-10-15T10:00:56;15.50;;;12.50;;
65871;SDS011;52653;50.080;21.992;2022-10-15T10:03:35;15.50;;;11.40;;
65871;SDS011;52653;50.080;21.992;2022-10-15T10:06:07;16.20;;;11.70;;
65871;SDS011;52653;50.080;21.992;2022-10-15T10:08:48;13.80;;;10.80;;
65871;SDS011;52653;50.080;21.992;2022-10-15T10:11:23;14.60;;;12.00;;
65871;SDS011;52653;50.080;21.992;2022-10-15T10:13:57;15.30;;;11.60;;
65871;SDS011;52653;50.080;21.992;2022-10-15T10:16:30;14.50;;;11.10;;
65871;SDS011;52653;50.080;21.992;2022-10-15T10:19:04;13.50;;;10.80;;
65871;SDS011;52653;50.080;21.992;2022-10-15T10:21:42;13.10;;;11.10;;
65871;SDS011;52653;50.080;21.992;2022-10-15T10:24:18;16.20;;;12.80;;
65871;SDS011;52653;50.080;21.992;2022-10-15T10:26:56;16.90;;;12.60;;
65871;SDS011;52653;50.080;21.992;2022-10-15T10:29:30;15.40;;;12.30;;
65871;SDS011;52653;50.080;21.992;2022-10-15T10:34:47;15.50;;;11.80;;
65871;SDS011;52653;50.080;21.992;2022-10-15T10:37:21;15.60;;;12.30;;
65871;SDS011;52653;50.080;21.992;2022-10-15T10:39:56;14.10;;;11.50;;
65871;SDS011;52653;50.080;21.992;2022-10-15T10:42:33;18.40;;;13.60;;
65871;SDS011;52653;50.080;21.992;2022-10-15T10:45:19;16.60;;;12.20;;
65871;SDS011;52653;50.080;21.992;2022-10-15T10:47:57;15.80;;;12.30;;
65871;SDS011;52653;50.080;21.992;2022-10-15T10:50:44;16.90;;;12.10;;
65871;SDS011;52653;50.080;21.992;2022-10-15T10:53:22;16.00;;;11.80;;
65871;SDS011;52653;50.080;21.992;2022-10-15T10:55:54;16.90;;;12.60;;
65871;SDS011;52653;50.080;21.992;2022-10-15T10:58:31;17.10;;;11.10;;
65871;SDS011;52653;50.080;21.992;2022-10-15T11:01:04;13.90;;;11.20;;
65871;SDS011;52653;50.080;21.992;2022-10-15T11:03:40;18.00;;;11.60;;
65871;SDS011;52653;50.080;21.992;2022-10-15T11:06:19;14.00;;;11.40;;
65871;SDS011;52653;50.080;21.992;2022-10-15T11:09:06;15.60;;;11.70;;
65871;SDS011;52653;50.080;21.992;2022-10-15T11:11:51;13.90;;;11.50;;
65871;SDS011;52653;50.080;21.992;2022-10-15T11:14:39;13.30;;;10.70;;
65871;SDS011;52653;50.080;21.992;2022-10-15T11:17:24;16.20;;;11.50;;
65871;SDS011;52653;50.080;21.992;2022-10-15T11:20:15;15.60;;;11.50;;
65871;SDS011;52653;50.080;21.992;2022-10-15T11:23:14;14.70;;;10.60;;
65871;SDS011;52653;50.080;21.992;2022-10-15T11:26:00;13.90;;;10.40;;
65871;SDS011;52653;50.080;21.992;2022-10-15T11:28:42;12.90;;;10.30;;
65871;SDS011;52653;50.080;21.992;2022-10-15T11:31:24;14.00;;;10.70;;
65871;SDS011;52653;50.080;21.992;2022-10-15T11:34:28;11.70;;;10.00;;
65871;SDS011;52653;50.080;21.992;2022-10-15T11:37:12;12.90;;;10.60;;
65871;SDS011;52653;50.080;21.992;2022-10-15T11:40:04;13.30;;;10.50;;
65871;SDS011;52653;50.080;21.992;2022-10-15T11:42:52;15.20;;;10.20;;
65871;SDS011;52653;50.080;21.992;2022-10-15T11:48:35;15.30;;;11.00;;
65871;SDS011;52653;50.080;21.992;2022-10-15T11:54:03;12.90;;;9.90;;
65871;SDS011;52653;50.080;21.992;2022-10-15T11:56:42;14.40;;;10.80;;
65871;SDS011;52653;50.080;21.992;2022-10-15T11:59:26;16.80;;;10.50;;
65871;SDS011;52653;50.080;21.992;2022-10-15T12:02:04;14.90;;;10.70;;
65871;SDS011;52653;50.080;21.992;2022-10-15T12:04:42;12.40;;;10.00;;
65871;SDS011;52653;50.080;21.992;2022-10-15T12:07:19;14.20;;;10.40;;
65871;SDS011;52653;50.080;21.992;2022-10-15T12:09:58;14.10;;;11.70;;
65871;SDS011;52653;50.080;21.992;2022-10-15T12:12:39;13.80;;;10.10;;
65871;SDS011;52653;50.080;21.992;2022-10-15T12:15:21;13.60;;;10.30;;
65871;SDS011;52653;50.080;21.992;2022-10-15T12:18:00;12.80;;;10.00;;
65871;SDS011;52653;50.080;21.992;2022-10-15T12:20:50;14.00;;;10.20;;
65871;SDS011;52653;50.080;21.992;2022-10-15T12:23:37;12.20;;;10.00;;
65871;SDS011;52653;50.080;21.992;2022-10-15T12:29:03;12.80;;;9.90;;
65871;SDS011;52653;50.080;21.992;2022-10-15T12:31:49;13.20;;;10.80;;
65871;SDS011;52653;50.080;21.992;2022-10-15T12:34:29;13.80;;;10.70;;
65871;SDS011;52653;50.080;21.992;2022-10-15T12:37:12;16.20;;;11.90;;
65871;SDS011;52653;50.080;21.992;2022-10-15T12:39:49;13.50;;;9.90;;
65871;SDS011;52653;50.080;21.992;2022-10-15T12:42:27;15.50;;;10.00;;
65871;SDS011;52653;50.080;21.992;2022-10-15T12:45:03;15.70;;;10.50;;
65871;SDS011;52653;50.080;21.992;2022-10-15T12:47:47;14.70;;;10.80;;
65871;SDS011;52653;50.080;21.992;2022-10-15T12:50:23;12.40;;;9.80;;
65871;SDS011;52653;50.080;21.992;2022-10-15T12:52:59;12.40;;;10.00;;
65871;SDS011;52653;50.080;21.992;2022-10-15T12:55:35;14.80;;;10.20;;
65871;SDS011;52653;50.080;21.992;2022-10-15T13:01:25;13.80;;;10.50;;
65871;SDS011;52653;50.080;21.992;2022-10-15T13:04:19;14.20;;;9.70;;
65871;SDS011;52653;50.080;21.992;2022-10-15T13:06:51;13.40;;;10.20;;
65871;SDS011;52653;50.080;21.992;2022-10-15T13:09:31;14.30;;;10.00;;
65871;SDS011;52653;50.080;21.992;2022-10-15T13:12:04;13.30;;;8.90;;
65871;SDS011;52653;50.080;21.992;2022-10-15T13:14:51;11.90;;;9.00;;
65871;SDS011;52653;50.080;21.992;2022-10-15T13:17:27;14.20;;;10.70;;
65871;SDS011;52653;50.080;21.992;2022-10-15T13:20:00;13.00;;;9.50;;
65871;SDS011;52653;50.080;21.992;2022-10-15T13:22:35;15.90;;;10.50;;
65871;SDS011;52653;50.080;21.992;2022-10-15T13:25:14;14.70;;;12.20;;
65871;SDS011;52653;50.080;21.992;2022-10-15T13:27:47;17.80;;;12.60;;
65871;SDS011;52653;50.080;21.992;2022-10-15T13:30:19;12.90;;;10.60;;
65871;SDS011;52653;50.080;21.992;2022-10-15T13:32:52;14.50;;;9.40;;
65871;SDS011;52653;50.080;21.992;2022-10-15T13:35:27;15.80;;;10.30;;
65871;SDS011;52653;50.080;21.992;2022-10-15T13:38:02;11.80;;;8.80;;
65871;SDS011;52653;50.080;21.992;2022-10-15T13:40:48;14.00;;;10.20;;
65871;SDS011;52653;50.080;21.992;2022-10-15T13:43:24;13.70;;;10.50;;
65871;SDS011;52653;50.080;21.992;2022-10-15T13:45:57;15.80;;;10.50;;
65871;SDS011;52653;50.080;21.992;2022-10-15T13:48:30;15.50;;;10.90;;
65871;SDS011;52653;50.080;21.992;2022-10-15T13:51:11;15.00;;;10.10;;
65871;SDS011;52653;50.080;21.992;2022-10-15T13:53:43;15.30;;;10.50;;
65871;SDS011;52653;50.080;21.992;2022-10-15T13:56:18;14.80;;;10.40;;
65871;SDS011;52653;50.080;21.992;2022-10-15T13:58:53;13.70;;;11.10;;
65871;SDS011;52653;50.080;21.992;2022-10-15T14:01:26;16.50;;;10.50;;
65871;SDS011;52653;50.080;21.992;2022-10-15T14:04:01;13.10;;;10.30;;
65871;SDS011;52653;50.080;21.992;2022-10-15T14:06:52;15.30;;;10.60;;
65871;SDS011;52653;50.080;21.992;2022-10-15T14:09:32;12.70;;;10.50;;
65871;SDS011;52653;50.080;21.992;2022-10-15T14:12:06;14.30;;;10.20;;
65871;SDS011;52653;50.080;21.992;2022-10-15T14:14:41;15.20;;;11.30;;
65871;SDS011;52653;50.080;21.992;2022-10-15T14:17:21;14.50;;;10.60;;
65871;SDS011;52653;50.080;21.992;2022-10-15T14:19:55;15.40;;;10.80;;
65871;SDS011;52653;50.080;21.992;2022-10-15T14:22:51;15.70;;;11.00;;
65871;SDS011;52653;50.080;21.992;2022-10-15T14:25:24;20.00;;;10.20;;
65871;SDS011;52653;50.080;21.992;2022-10-15T14:27:57;16.50;;;11.50;;
65871;SDS011;52653;50.080;21.992;2022-10-15T14:30:29;16.60;;;11.50;;
65871;SDS011;52653;50.080;21.992;2022-10-15T14:33:04;14.90;;;11.10;;
65871;SDS011;52653;50.080;21.992;2022-10-15T14:35:51;18.20;;;12.80;;
65871;SDS011;52653;50.080;21.992;2022-10-15T14:38:34;13.60;;;11.00;;
65871;SDS011;52653;50.080;21.992;2022-10-15T14:41:19;14.50;;;11.60;;
65871;SDS011;52653;50.080;21.992;2022-10-15T14:44:00;17.20;;;12.10;;
65871;SDS011;52653;50.080;21.992;2022-10-15T14:46:38;16.80;;;12.40;;
65871;SDS011;52653;50.080;21.992;2022-10-15T14:49:15;15.00;;;11.60;;
65871;SDS011;52653;50.080;21.992;2022-10-15T14:51:53;16.50;;;12.20;;
65871;SDS011;52653;50.080;21.992;2022-10-15T14:54:31;17.90;;;12.60;;
65871;SDS011;52653;50.080;21.992;2022-10-15T14:57:11;16.30;;;11.60;;
65871;SDS011;52653;50.080;21.992;2022-10-15T14:59:51;16.20;;;12.30;;
65871;SDS011;52653;50.080;21.992;2022-10-15T15:02:25;16.20;;;12.10;;
65871;SDS011;52653;50.080;21.992;2022-10-15T15:07:52;16.50;;;12.00;;
65871;SDS011;52653;50.080;21.992;2022-10-15T15:10:25;18.70;;;12.80;;
65871;SDS011;52653;50.080;21.992;2022-10-15T15:12:57;16.90;;;12.10;;
65871;SDS011;52653;50.080;21.992;2022-10-15T15:15:29;18.50;;;12.70;;
65871;SDS011;52653;50.080;21.992;2022-10-15T15:18:01;16.60;;;12.00;;
65871;SDS011;52653;50.080;21.992;2022-10-15T15:20:33;14.90;;;11.90;;
65871;SDS011;52653;50.080;21.992;2022-10-15T15:23:06;15.90;;;11.80;;
65871;SDS011;52653;50.080;21.992;2022-10-15T15:25:42;15.00;;;12.00;;
65871;SDS011;52653;50.080;21.992;2022-10-15T15:28:15;16.50;;;12.20;;
65871;SDS011;52653;50.080;21.992;2022-10-15T15:30:55;19.30;;;12.30;;
65871;SDS011;52653;50.080;21.992;2022-10-15T15:33:29;15.30;;;12.40;;
65871;SDS011;52653;50.080;21.992;2022-10-15T15:36:02;21.40;;;11.60;;
65871;SDS011;52653;50.080;21.992;2022-10-15T15:38:36;16.20;;;12.70;;